createdAt,value
2022-12-09T00:02:59.553Z,98316.34
2022-12-09T00:08:18.353Z,98308.73
2022-12-09T00:13:22.923Z,98311.77
2022-12-09T00:18:28.006Z,98312.25
2022-12-09T00:23:32.001Z,98312.99
2022-12-09T00:34:11.607Z,98314.67
2022-12-09T00:39:37.898Z,98323.91
2022-12-09T00:44:42.259Z,98329.05
2022-12-09T00:49:46.527Z,98336.15
2022-12-09T01:00:12.500Z,98334.02
2022-12-09T01:05:22.204Z,98336.12
2022-12-09T01:10:26.601Z,98336.38
2022-12-09T01:15:30.864Z,98330.08
2022-12-09T01:20:38.315Z,98331.57
2022-12-09T01:25:42.901Z,98336.41
2022-12-09T01:31:03.749Z,98333.16
2022-12-09T01:36:17.611Z,98336.27
2022-12-09T01:41:22.722Z,98335.27
2022-12-09T01:47:23.031Z,98331.08
2022-12-09T01:57:50.548Z,98336.69
2022-12-09T02:03:07.706Z,98332.65
2022-12-09T02:08:19.676Z,98331.00
2022-12-09T02:13:38.769Z,98329.73
2022-12-09T02:18:58.860Z,98319.54
2022-12-09T02:24:24.108Z,98313.87
2022-12-09T02:29:50.016Z,98309.73
2022-12-09T02:35:16.245Z,98309.77
2022-12-09T02:40:51.054Z,98309.38
2022-12-09T02:45:58.118Z,98302.08
2022-12-09T02:51:09.738Z,98301.27
2022-12-09T02:56:16.360Z,98303.54
2022-12-09T03:01:35.661Z,98302.09
2022-12-09T03:06:46.183Z,98304.09
2022-12-09T03:11:55.719Z,98305.70
2022-12-09T03:17:26.718Z,98306.81
2022-12-09T03:22:36.418Z,98295.81
2022-12-09T03:27:54.148Z,98293.58
2022-12-09T03:33:03.886Z,98287.96
2022-12-09T03:38:13.058Z,98281.45
2022-12-09T03:43:27.036Z,98282.63
2022-12-09T03:48:31.911Z,98288.75
2022-12-09T03:53:57.133Z,98287.04
2022-12-09T03:59:05.474Z,98289.61
2022-12-09T04:04:16.115Z,98288.70
2022-12-09T04:09:26.415Z,98285.09
2022-12-09T04:14:30.556Z,98288.93
2022-12-09T04:19:34.843Z,98291.73
2022-12-09T04:24:39.037Z,98287.80
2022-12-09T04:29:46.423Z,98292.09
2022-12-09T04:34:50.736Z,98292.44
2022-12-09T04:39:56.397Z,98286.07
2022-12-09T04:45:03.152Z,98290.51
2022-12-09T04:50:08.378Z,98296.51
2022-12-09T04:55:28.557Z,98294.23
2022-12-09T05:00:42.773Z,98294.39
2022-12-09T05:05:47.184Z,98294.94
2022-12-09T05:16:26.454Z,98300.35
2022-12-09T05:21:30.781Z,98300.75
2022-12-09T05:26:40.046Z,98295.81
2022-12-09T05:31:44.214Z,98291.14
2022-12-09T05:36:53.037Z,98296.31
2022-12-09T05:42:09.357Z,98293.06
2022-12-09T05:47:27.058Z,98295.92
2022-12-09T05:52:31.776Z,98291.76
2022-12-09T05:57:37.958Z,98297.79
2022-12-09T06:02:42.592Z,98297.10
2022-12-09T06:07:46.543Z,98294.20
2022-12-09T06:12:53.840Z,98297.18
2022-12-09T06:17:58.127Z,98297.48
2022-12-09T06:23:08.633Z,98294.95
2022-12-09T06:28:15.076Z,98300.95
2022-12-09T06:33:52.611Z,98310.23
2022-12-09T06:38:46.153Z,98315.04
2022-12-09T06:44:04.197Z,98313.90
2022-12-09T06:49:16.009Z,98315.16
2022-12-09T06:54:23.101Z,98315.38
2022-12-09T06:59:29.953Z,98310.67
2022-12-09T07:04:34.344Z,98305.14
2022-12-09T07:09:41.550Z,98311.02
2022-12-09T07:14:46.864Z,98312.89
2022-12-09T07:19:51.951Z,98327.05
2022-12-09T07:24:56.750Z,98317.94
2022-12-09T07:30:08.191Z,98296.89
2022-12-09T07:35:15.452Z,98293.17
2022-12-09T07:40:28.039Z,98285.59
2022-12-09T07:45:35.003Z,98273.15
2022-12-09T07:51:05.541Z,98271.50
2022-12-09T07:56:32.212Z,98273.45
2022-12-09T08:01:47.958Z,98267.88
2022-12-09T08:08:01.104Z,98263.60
2022-12-09T08:13:09.069Z,98270.83
2022-12-09T08:18:31.784Z,98278.75
2022-12-09T08:23:45.864Z,98280.77
2022-12-09T08:28:51.644Z,98281.82
2022-12-09T08:34:01.525Z,98283.88
2022-12-09T08:39:07.787Z,98282.69
2022-12-09T08:44:20.244Z,98278.59
2022-12-09T08:49:34.838Z,98275.14
2022-12-09T08:54:38.915Z,98276.92
2022-12-09T08:59:45.465Z,98269.09
2022-12-09T09:04:50.135Z,98268.95
2022-12-09T09:09:58.255Z,98267.77
2022-12-09T09:15:03.820Z,98263.60
2022-12-09T09:20:12.362Z,98260.77
2022-12-09T09:25:19.085Z,98261.18
2022-12-09T09:30:25.395Z,98259.77
2022-12-09T09:36:13.005Z,98254.45
2022-12-09T09:41:27.042Z,98251.48
2022-12-09T09:47:05.450Z,98237.31
2022-12-09T09:52:26.137Z,98230.36
2022-12-09T09:58:11.046Z,98228.58
2022-12-09T10:04:22.065Z,98226.08
2022-12-09T10:10:02.058Z,98223.57
2022-12-09T10:15:31.540Z,98215.95
2022-12-09T10:20:48.017Z,98210.44
2022-12-09T10:25:57.811Z,98207.52
2022-12-09T10:31:03.644Z,98199.39
2022-12-09T10:36:38.108Z,98190.34
2022-12-09T10:42:34.801Z,98190.29
2022-12-09T10:47:49.838Z,98176.01
2022-12-09T10:52:56.116Z,98168.11
2022-12-09T10:58:17.900Z,98168.45
2022-12-09T11:09:27.215Z,98179.64
2022-12-09T11:14:53.267Z,98174.80
2022-12-09T11:20:26.387Z,98157.05
2022-12-09T11:25:50.408Z,98153.51
2022-12-09T11:36:42.247Z,98161.05
2022-12-09T11:42:16.131Z,98158.04
2022-12-09T11:48:25.891Z,98162.66
2022-12-09T11:53:34.435Z,98158.39
2022-12-09T11:59:16.850Z,98157.52
2022-12-09T12:05:08.303Z,98148.44
2022-12-09T12:10:30.558Z,98151.30
2022-12-09T12:16:07.831Z,98132.51
2022-12-09T12:27:55.264Z,98088.97
2022-12-09T12:39:29.854Z,98104.68
2022-12-09T12:46:34.044Z,98098.18
2022-12-09T12:52:04.187Z,98094.81
2022-12-09T12:57:26.728Z,98094.11
2022-12-09T13:02:47.827Z,98090.92
2022-12-09T13:08:02.583Z,98087.75
2022-12-09T13:13:19.532Z,98079.38
2022-12-09T13:18:35.682Z,98078.86
2022-12-09T13:24:08.823Z,98074.50
2022-12-09T13:29:51.501Z,98074.92
2022-12-09T13:35:05.719Z,98057.95
2022-12-09T13:40:24.817Z,98048.19
2022-12-09T13:45:37.669Z,98047.58
2022-12-09T13:50:44.406Z,98036.10
2022-12-09T13:56:07.203Z,98027.85
2022-12-09T14:08:01.803Z,98019.20
2022-12-09T14:13:26.959Z,98013.70
2022-12-09T14:18:50.439Z,98004.82
2022-12-09T14:24:11.598Z,98017.80
2022-12-09T14:30:01.825Z,98021.40
2022-12-09T14:35:12.977Z,98020.77
2022-12-09T14:40:51.026Z,98017.48
2022-12-09T14:46:01.146Z,98019.27
2022-12-09T14:51:16.194Z,98022.86
2022-12-09T15:01:50.200Z,98033.48
2022-12-09T15:07:23.327Z,98035.10
2022-12-09T15:12:48.014Z,98027.52
2022-12-09T15:18:31.641Z,98022.95
2022-12-09T15:23:45.847Z,98027.02
2022-12-09T15:28:55.742Z,98019.21
2022-12-09T15:34:26.286Z,98013.65
2022-12-09T15:39:59.478Z,98003.13
2022-12-09T15:45:12.097Z,97993.75
2022-12-09T15:50:18.840Z,97983.02
2022-12-09T15:55:42.733Z,97972.95
2022-12-09T16:00:52.522Z,97963.70
2022-12-09T16:11:41.730Z,97942.20
2022-12-09T16:16:53.023Z,97934.23
2022-12-09T16:22:01.332Z,97927.77
2022-12-09T16:27:06.247Z,97918.50
2022-12-09T16:32:34.734Z,97912.23
2022-12-09T16:37:42.269Z,97906.70
2022-12-09T16:42:48.621Z,97898.89
2022-12-09T16:47:56.761Z,97887.85
2022-12-09T16:53:00.904Z,97879.77
2022-12-09T16:58:05.530Z,97875.18
2022-12-09T17:03:16.036Z,97863.14
2022-12-09T17:08:19.785Z,97859.74
2022-12-09T17:13:23.575Z,97858.48
2022-12-09T17:18:28.783Z,97862.14
2022-12-09T17:23:39.395Z,97863.79
2022-12-09T17:28:45.286Z,97865.37
2022-12-09T17:33:49.853Z,97867.88
2022-12-09T17:38:53.643Z,97859.55
2022-12-09T17:43:58.060Z,97854.27
2022-12-09T17:49:15.093Z,97850.08
2022-12-09T17:54:32.276Z,97845.97
2022-12-09T17:59:38.971Z,97843.27
2022-12-09T18:04:43.283Z,97836.39
2022-12-09T18:09:54.609Z,97828.06
2022-12-09T18:14:58.589Z,97823.50
2022-12-09T18:20:02.406Z,97818.67
2022-12-09T18:25:08.098Z,97819.92
2022-12-09T18:30:13.705Z,97817.19
2022-12-09T18:35:17.655Z,97807.98
2022-12-09T18:40:24.440Z,97797.13
2022-12-09T18:45:28.159Z,97789.65
2022-12-09T18:50:31.668Z,97788.42
2022-12-09T18:55:41.854Z,97789.65
2022-12-09T19:00:48.918Z,97776.92
2022-12-09T19:05:52.850Z,97770.08
2022-12-09T19:10:57.861Z,97757.46
2022-12-09T19:16:10.338Z,97760.98
2022-12-09T19:21:19.955Z,97751.82
2022-12-09T19:26:26.431Z,97744.52
2022-12-09T19:31:35.644Z,97743.46
2022-12-09T19:36:40.068Z,97734.04
2022-12-09T19:41:44.751Z,97729.47
2022-12-09T19:46:50.595Z,97726.27
2022-12-09T19:51:55.055Z,97716.91
2022-12-09T19:56:58.822Z,97718.20
2022-12-09T20:02:02.320Z,97716.45
2022-12-09T20:07:08.338Z,97709.70
2022-12-09T20:12:12.725Z,97711.98
2022-12-09T20:17:20.024Z,97705.95
2022-12-09T20:22:23.869Z,97714.32
2022-12-09T20:27:30.526Z,97716.05
2022-12-09T20:37:58.630Z,97697.31
2022-12-09T20:43:05.081Z,97684.55
2022-12-09T20:48:08.887Z,97689.45
2022-12-09T20:53:12.590Z,97678.36
2022-12-09T20:58:16.287Z,97681.52
2022-12-09T21:03:20.279Z,97674.55
2022-12-09T21:08:45.269Z,97677.17
2022-12-09T21:13:52.284Z,97677.30
2022-12-09T21:18:59.439Z,97684.95
2022-12-09T21:24:06.313Z,97685.20
2022-12-09T21:29:11.949Z,97689.75
2022-12-09T21:34:15.595Z,97692.46
2022-12-09T21:39:19.951Z,97689.52
2022-12-09T21:51:25.068Z,97678.21
2022-12-09T21:58:27.058Z,97677.92
2022-12-09T22:03:14.667Z,97674.03
2022-12-09T22:09:01.759Z,97674.31
2022-12-09T22:14:29.453Z,97672.23
2022-12-09T22:19:43.458Z,97670.69
2022-12-09T22:24:50.185Z,97669.89
2022-12-09T22:29:53.199Z,97665.29
2022-12-09T22:34:57.151Z,97657.16
2022-12-09T22:40:00.230Z,97653.61
2022-12-09T22:45:05.387Z,97648.99
2022-12-09T22:50:09.182Z,97642.33
2022-12-09T22:55:12.585Z,97647.87
2022-12-09T23:00:15.982Z,97635.38
2022-12-09T23:05:19.196Z,97634.75
2022-12-09T23:10:22.595Z,97634.44
2022-12-09T23:15:25.865Z,97638.95
2022-12-09T23:20:29.517Z,97628.73
2022-12-09T23:37:28.665Z,97627.16
